sensor_id;sensor_type;location;lat;lon;timestamp;P1;durP1;ratioP1;P2;durP2;ratioP2
46563;SDS011;32291;52.010;4.446;2022-11-20T00:00:06;19.80;;;15.27;;
46563;SDS011;32291;52.010;4.446;2022-11-20T00:01:10;20.65;;;16.67;;
46563;SDS011;32291;52.010;4.446;2022-11-20T00:02:25;19.60;;;15.60;;
46563;SDS011;32291;52.010;4.446;2022-11-20T00:03:27;19.25;;;14.55;;
46563;SDS011;32291;52.010;4.446;2022-11-20T00:04:29;20.75;;;15.50;;
46563;SDS011;32291;52.010;4.446;2022-11-20T00:05:32;18.60;;;15.63;;
46563;SDS011;32291;52.010;4.446;2022-11-20T00:06:34;18.77;;;15.38;;
46563;SDS011;32291;52.010;4.446;2022-11-20T00:07:36;19.70;;;16.10;;
46563;SDS011;32291;52.010;4.446;2022-11-20T00:08:38;22.30;;;17.42;;
46563;SDS011;32291;52.010;4.446;2022-11-20T00:09:42;22.63;;;17.15;;
46563;SDS011;32291;52.010;4.446;2022-11-20T00:10:44;20.27;;;16.60;;
46563;SDS011;32291;52.010;4.446;2022-11-20T00:11:46;22.42;;;18.38;;
46563;SDS011;32291;52.010;4.446;2022-11-20T00:12:48;24.10;;;17.98;;
46563;SDS011;32291;52.010;4.446;2022-11-20T00:13:51;20.67;;;17.67;;
46563;SDS011;32291;52.010;4.446;2022-11-20T00:14:58;22.25;;;15.73;;
46563;SDS011;32291;52.010;4.446;2022-11-20T00:16:02;21.77;;;17.30;;
46563;SDS011;32291;52.010;4.446;2022-11-20T00:17:08;21.33;;;17.42;;
46563;SDS011;32291;52.010;4.446;2022-11-20T00:18:10;22.77;;;16.77;;
46563;SDS011;32291;52.010;4.446;2022-11-20T00:19:12;21.20;;;16.42;;
46563;SDS011;32291;52.010;4.446;2022-11-20T00:20:17;20.45;;;16.10;;
46563;SDS011;32291;52.010;4.446;2022-11-20T00:21:23;19.85;;;16.60;;
46563;SDS011;32291;52.010;4.446;2022-11-20T00:22:28;17.38;;;15.25;;
46563;SDS011;32291;52.010;4.446;2022-11-20T00:23:30;20.33;;;15.77;;
46563;SDS011;32291;52.010;4.446;2022-11-20T00:24:33;19.98;;;16.08;;
46563;SDS011;32291;52.010;4.446;2022-11-20T00:25:35;19.98;;;16.52;;
46563;SDS011;32291;52.010;4.446;2022-11-20T00:26:37;19.55;;;15.70;;
46563;SDS011;32291;52.010;4.446;2022-11-20T00:27:39;19.35;;;15.73;;
46563;SDS011;32291;52.010;4.446;2022-11-20T00:28:42;21.80;;;15.75;;
46563;SDS011;32291;52.010;4.446;2022-11-20T00:29:49;20.27;;;15.95;;
46563;SDS011;32291;52.010;4.446;2022-11-20T00:30:59;19.42;;;15.77;;
46563;SDS011;32291;52.010;4.446;2022-11-20T00:32:08;19.70;;;16.33;;
46563;SDS011;32291;52.010;4.446;2022-11-20T00:33:10;18.70;;;16.63;;
46563;SDS011;32291;52.010;4.446;2022-11-20T00:34:12;26.20;;;17.40;;
46563;SDS011;32291;52.010;4.446;2022-11-20T00:35:14;20.02;;;16.33;;
46563;SDS011;32291;52.010;4.446;2022-11-20T00:36:17;19.27;;;15.35;;
46563;SDS011;32291;52.010;4.446;2022-11-20T00:37:23;20.17;;;16.30;;
46563;SDS011;32291;52.010;4.446;2022-11-20T00:38:25;21.00;;;16.50;;
46563;SDS011;32291;52.010;4.446;2022-11-20T00:39:28;21.38;;;17.55;;
46563;SDS011;32291;52.010;4.446;2022-11-20T00:40:30;21.83;;;17.20;;
46563;SDS011;32291;52.010;4.446;2022-11-20T00:41:33;19.05;;;16.17;;
46563;SDS011;32291;52.010;4.446;2022-11-20T00:42:35;22.00;;;17.17;;
46563;SDS011;32291;52.010;4.446;2022-11-20T00:43:38;21.27;;;16.63;;
46563;SDS011;32291;52.010;4.446;2022-11-20T00:44:40;20.10;;;16.00;;
46563;SDS011;32291;52.010;4.446;2022-11-20T00:45:42;20.58;;;16.23;;
46563;SDS011;32291;52.010;4.446;2022-11-20T00:46:44;20.05;;;15.10;;
46563;SDS011;32291;52.010;4.446;2022-11-20T00:47:46;20.40;;;16.08;;
46563;SDS011;32291;52.010;4.446;2022-11-20T00:48:48;20.85;;;16.95;;
46563;SDS011;32291;52.010;4.446;2022-11-20T00:49:50;18.80;;;14.50;;
46563;SDS011;32291;52.010;4.446;2022-11-20T00:50:52;20.33;;;16.38;;
46563;SDS011;32291;52.010;4.446;2022-11-20T00:51:55;19.08;;;16.00;;
46563;SDS011;32291;52.010;4.446;2022-11-20T00:52:57;17.63;;;15.63;;
46563;SDS011;32291;52.010;4.446;2022-11-20T00:53:59;20.73;;;16.17;;
46563;SDS011;32291;52.010;4.446;2022-11-20T00:55:02;19.63;;;15.93;;
46563;SDS011;32291;52.010;4.446;2022-11-20T00:56:06;20.30;;;16.92;;
46563;SDS011;32291;52.010;4.446;2022-11-20T00:57:13;19.83;;;15.82;;
46563;SDS011;32291;52.010;4.446;2022-11-20T00:58:15;20.80;;;16.67;;
46563;SDS011;32291;52.010;4.446;2022-11-20T00:59:17;22.63;;;17.05;;
46563;SDS011;32291;52.010;4.446;2022-11-20T01:00:20;19.63;;;16.15;;
46563;SDS011;32291;52.010;4.446;2022-11-20T01:01:23;22.13;;;16.73;;
46563;SDS011;32291;52.010;4.446;2022-11-20T01:02:27;21.60;;;17.25;;
46563;SDS011;32291;52.010;4.446;2022-11-20T01:03:32;19.55;;;16.10;;
46563;SDS011;32291;52.010;4.446;2022-11-20T01:04:37;19.65;;;15.65;;
46563;SDS011;32291;52.010;4.446;2022-11-20T01:05:39;19.45;;;15.82;;
46563;SDS011;32291;52.010;4.446;2022-11-20T01:06:41;19.63;;;15.77;;
46563;SDS011;32291;52.010;4.446;2022-11-20T01:07:44;22.92;;;16.10;;
46563;SDS011;32291;52.010;4.446;2022-11-20T01:08:46;19.77;;;15.63;;
46563;SDS011;32291;52.010;4.446;2022-11-20T01:09:51;20.10;;;15.88;;
46563;SDS011;32291;52.010;4.446;2022-11-20T01:10:53;19.23;;;15.90;;
46563;SDS011;32291;52.010;4.446;2022-11-20T01:12:11;19.13;;;16.02;;
46563;SDS011;32291;52.010;4.446;2022-11-20T01:13:13;19.95;;;15.65;;
46563;SDS011;32291;52.010;4.446;2022-11-20T01:14:34;20.55;;;15.82;;
46563;SDS011;32291;52.010;4.446;2022-11-20T01:15:36;18.20;;;15.00;;
46563;SDS011;32291;52.010;4.446;2022-11-20T01:16:40;20.15;;;16.80;;
46563;SDS011;32291;52.010;4.446;2022-11-20T01:17:46;20.52;;;17.15;;
46563;SDS011;32291;52.010;4.446;2022-11-20T01:18:49;20.27;;;16.88;;
46563;SDS011;32291;52.010;4.446;2022-11-20T01:19:55;19.85;;;16.50;;
46563;SDS011;32291;52.010;4.446;2022-11-20T01:22:34;19.77;;;14.68;;
46563;SDS011;32291;52.010;4.446;2022-11-20T01:23:38;22.02;;;15.98;;
46563;SDS011;32291;52.010;4.446;2022-11-20T01:24:42;21.35;;;16.63;;
46563;SDS011;32291;52.010;4.446;2022-11-20T01:25:44;21.48;;;16.48;;
46563;SDS011;32291;52.010;4.446;2022-11-20T01:26:47;22.33;;;17.95;;
46563;SDS011;32291;52.010;4.446;2022-11-20T01:27:53;20.25;;;16.75;;
46563;SDS011;32291;52.010;4.446;2022-11-20T01:28:55;20.65;;;15.60;;
46563;SDS011;32291;52.010;4.446;2022-11-20T01:29:59;19.90;;;15.95;;
46563;SDS011;32291;52.010;4.446;2022-11-20T01:31:00;21.33;;;15.93;;
46563;SDS011;32291;52.010;4.446;2022-11-20T01:32:11;20.95;;;16.88;;
46563;SDS011;32291;52.010;4.446;2022-11-20T01:33:14;23.17;;;16.95;;
46563;SDS011;32291;52.010;4.446;2022-11-20T01:34:16;21.45;;;15.80;;
46563;SDS011;32291;52.010;4.446;2022-11-20T01:35:21;20.13;;;16.98;;
46563;SDS011;32291;52.010;4.446;2022-11-20T01:36:24;21.50;;;17.02;;
46563;SDS011;32291;52.010;4.446;2022-11-20T01:37:29;21.95;;;16.40;;
46563;SDS011;32291;52.010;4.446;2022-11-20T01:38:31;21.13;;;17.13;;
46563;SDS011;32291;52.010;4.446;2022-11-20T01:39:34;22.20;;;16.23;;
46563;SDS011;32291;52.010;4.446;2022-11-20T01:40:35;20.08;;;15.63;;
46563;SDS011;32291;52.010;4.446;2022-11-20T01:41:37;19.73;;;16.35;;
46563;SDS011;32291;52.010;4.446;2022-11-20T01:43:13;22.38;;;17.35;;
46563;SDS011;32291;52.010;4.446;2022-11-20T01:46:35;19.23;;;15.27;;
46563;SDS011;32291;52.010;4.446;2022-11-20T01:50:20;22.13;;;16.60;;
46563;SDS011;32291;52.010;4.446;2022-11-20T01:52:56;20.05;;;15.48;;
46563;SDS011;32291;52.010;4.446;2022-11-20T01:54:11;19.75;;;16.13;;
46563;SDS011;32291;52.010;4.446;2022-11-20T01:55:26;24.15;;;17.55;;
46563;SDS011;32291;52.010;4.446;2022-11-20T01:56:38;19.77;;;15.70;;
46563;SDS011;32291;52.010;4.446;2022-11-20T01:57:46;23.88;;;18.13;;
46563;SDS011;32291;52.010;4.446;2022-11-20T01:58:51;22.20;;;16.90;;
46563;SDS011;32291;52.010;4.446;2022-11-20T02:00:06;21.35;;;17.02;;
46563;SDS011;32291;52.010;4.446;2022-11-20T02:01:14;21.73;;;16.52;;
46563;SDS011;32291;52.010;4.446;2022-11-20T02:02:16;22.40;;;17.10;;
46563;SDS011;32291;52.010;4.446;2022-11-20T02:03:19;22.35;;;17.20;;
46563;SDS011;32291;52.010;4.446;2022-11-20T02:04:21;32.08;;;19.05;;
46563;SDS011;32291;52.010;4.446;2022-11-20T02:05:36;23.83;;;18.50;;
46563;SDS011;32291;52.010;4.446;2022-11-20T02:06:59;23.65;;;18.15;;
46563;SDS011;32291;52.010;4.446;2022-11-20T02:08:05;23.63;;;17.75;;
46563;SDS011;32291;52.010;4.446;2022-11-20T02:09:08;23.35;;;17.42;;
46563;SDS011;32291;52.010;4.446;2022-11-20T02:10:11;21.38;;;16.98;;
46563;SDS011;32291;52.010;4.446;2022-11-20T02:11:13;25.00;;;17.23;;
46563;SDS011;32291;52.010;4.446;2022-11-20T02:12:16;19.85;;;16.02;;
46563;SDS011;32291;52.010;4.446;2022-11-20T02:13:36;23.10;;;16.83;;
46563;SDS011;32291;52.010;4.446;2022-11-20T02:14:44;19.95;;;17.50;;
46563;SDS011;32291;52.010;4.446;2022-11-20T02:15:46;24.17;;;17.48;;
46563;SDS011;32291;52.010;4.446;2022-11-20T02:16:49;20.15;;;16.92;;
46563;SDS011;32291;52.010;4.446;2022-11-20T02:17:53;21.80;;;17.20;;
46563;SDS011;32291;52.010;4.446;2022-11-20T02:18:56;23.02;;;17.45;;
46563;SDS011;32291;52.010;4.446;2022-11-20T02:20:02;22.60;;;16.77;;
46563;SDS011;32291;52.010;4.446;2022-11-20T02:21:18;21.75;;;16.70;;
46563;SDS011;32291;52.010;4.446;2022-11-20T02:22:42;20.70;;;16.20;;
46563;SDS011;32291;52.010;4.446;2022-11-20T02:24:14;20.02;;;15.98;;
46563;SDS011;32291;52.010;4.446;2022-11-20T02:25:23;21.67;;;16.02;;
46563;SDS011;32291;52.010;4.446;2022-11-20T02:26:33;20.73;;;14.77;;
46563;SDS011;32291;52.010;4.446;2022-11-20T02:27:46;21.50;;;16.45;;
46563;SDS011;32291;52.010;4.446;2022-11-20T02:28:48;20.60;;;15.63;;
46563;SDS011;32291;52.010;4.446;2022-11-20T02:29:53;21.02;;;17.35;;
46563;SDS011;32291;52.010;4.446;2022-11-20T02:31:02;23.13;;;17.38;;
46563;SDS011;32291;52.010;4.446;2022-11-20T02:32:06;21.60;;;16.73;;
46563;SDS011;32291;52.010;4.446;2022-11-20T02:33:20;22.00;;;17.00;;
46563;SDS011;32291;52.010;4.446;2022-11-20T02:34:22;26.75;;;18.40;;
46563;SDS011;32291;52.010;4.446;2022-11-20T02:36:26;23.38;;;16.63;;
46563;SDS011;32291;52.010;4.446;2022-11-20T02:37:33;21.15;;;17.17;;
46563;SDS011;32291;52.010;4.446;2022-11-20T02:38:41;23.33;;;17.15;;
46563;SDS011;32291;52.010;4.446;2022-11-20T02:39:48;25.05;;;17.38;;
46563;SDS011;32291;52.010;4.446;2022-11-20T02:40:53;23.63;;;16.98;;
46563;SDS011;32291;52.010;4.446;2022-11-20T02:41:54;21.23;;;17.75;;
46563;SDS011;32291;52.010;4.446;2022-11-20T02:42:57;27.00;;;19.98;;
46563;SDS011;32291;52.010;4.446;2022-11-20T02:44:00;24.60;;;18.08;;
46563;SDS011;32291;52.010;4.446;2022-11-20T02:45:05;24.25;;;19.02;;
46563;SDS011;32291;52.010;4.446;2022-11-20T02:46:12;23.45;;;17.98;;
46563;SDS011;32291;52.010;4.446;2022-11-20T02:47:14;21.33;;;17.02;;
46563;SDS011;32291;52.010;4.446;2022-11-20T02:48:16;22.70;;;17.15;;
46563;SDS011;32291;52.010;4.446;2022-11-20T02:49:18;24.42;;;18.48;;
46563;SDS011;32291;52.010;4.446;2022-11-20T02:50:20;23.95;;;17.20;;
46563;SDS011;32291;52.010;4.446;2022-11-20T02:51:22;23.25;;;17.48;;
46563;SDS011;32291;52.010;4.446;2022-11-20T02:52:25;24.10;;;17.63;;
46563;SDS011;32291;52.010;4.446;2022-11-20T02:53:28;23.45;;;17.27;;
46563;SDS011;32291;52.010;4.446;2022-11-20T02:54:29;26.73;;;19.20;;
46563;SDS011;32291;52.010;4.446;2022-11-20T02:55:31;23.23;;;18.05;;
46563;SDS011;32291;52.010;4.446;2022-11-20T02:56:34;26.45;;;18.65;;
46563;SDS011;32291;52.010;4.446;2022-11-20T02:57:39;23.08;;;18.10;;
46563;SDS011;32291;52.010;4.446;2022-11-20T02:58:41;21.42;;;17.38;;
46563;SDS011;32291;52.010;4.446;2022-11-20T02:59:44;23.10;;;17.73;;
46563;SDS011;32291;52.010;4.446;2022-11-20T03:00:46;22.52;;;17.42;;
46563;SDS011;32291;52.010;4.446;2022-11-20T03:01:47;20.15;;;16.48;;
46563;SDS011;32291;52.010;4.446;2022-11-20T03:02:49;20.63;;;17.05;;
46563;SDS011;32291;52.010;4.446;2022-11-20T03:03:51;22.60;;;16.27;;
46563;SDS011;32291;52.010;4.446;2022-11-20T03:04:56;25.65;;;18.33;;
46563;SDS011;32291;52.010;4.446;2022-11-20T03:05:59;22.80;;;18.17;;
46563;SDS011;32291;52.010;4.446;2022-11-20T03:07:01;24.77;;;18.20;;
46563;SDS011;32291;52.010;4.446;2022-11-20T03:08:03;25.08;;;18.75;;
46563;SDS011;32291;52.010;4.446;2022-11-20T03:09:05;24.05;;;18.65;;
46563;SDS011;32291;52.010;4.446;2022-11-20T03:10:07;23.75;;;17.80;;
46563;SDS011;32291;52.010;4.446;2022-11-20T03:11:10;24.90;;;18.23;;
46563;SDS011;32291;52.010;4.446;2022-11-20T03:12:13;22.98;;;17.10;;
46563;SDS011;32291;52.010;4.446;2022-11-20T03:13:16;24.65;;;18.65;;
46563;SDS011;32291;52.010;4.446;2022-11-20T03:14:18;23.77;;;18.33;;
46563;SDS011;32291;52.010;4.446;2022-11-20T03:15:20;23.20;;;17.50;;
46563;SDS011;32291;52.010;4.446;2022-11-20T03:16:24;22.02;;;17.23;;
46563;SDS011;32291;52.010;4.446;2022-11-20T03:17:26;21.80;;;17.92;;
46563;SDS011;32291;52.010;4.446;2022-11-20T03:18:30;21.05;;;16.98;;
46563;SDS011;32291;52.010;4.446;2022-11-20T03:19:32;24.35;;;18.30;;
46563;SDS011;32291;52.010;4.446;2022-11-20T03:20:35;23.48;;;17.75;;
46563;SDS011;32291;52.010;4.446;2022-11-20T03:21:37;25.02;;;18.40;;
46563;SDS011;32291;52.010;4.446;2022-11-20T03:22:39;21.55;;;17.45;;
46563;SDS011;32291;52.010;4.446;2022-11-20T03:23:41;23.92;;;17.75;;
46563;SDS011;32291;52.010;4.446;2022-11-20T03:24:44;23.55;;;18.38;;
46563;SDS011;32291;52.010;4.446;2022-11-20T03:25:46;22.90;;;17.85;;
46563;SDS011;32291;52.010;4.446;2022-11-20T03:26:48;23.52;;;18.77;;
46563;SDS011;32291;52.010;4.446;2022-11-20T03:27:50;27.17;;;18.88;;
46563;SDS011;32291;52.010;4.446;2022-11-20T03:28:56;23.45;;;17.83;;
46563;SDS011;32291;52.010;4.446;2022-11-20T03:30:02;20.75;;;16.63;;
46563;SDS011;32291;52.010;4.446;2022-11-20T03:31:11;21.75;;;17.52;;
46563;SDS011;32291;52.010;4.446;2022-11-20T03:32:16;21.83;;;17.80;;
46563;SDS011;32291;52.010;4.446;2022-11-20T03:33:18;21.83;;;17.83;;
46563;SDS011;32291;52.010;4.446;2022-11-20T03:34:19;25.42;;;18.33;;
46563;SDS011;32291;52.010;4.446;2022-11-20T03:35:21;22.70;;;17.60;;
46563;SDS011;32291;52.010;4.446;2022-11-20T03:36:24;21.60;;;16.42;;
46563;SDS011;32291;52.010;4.446;2022-11-20T03:37:28;20.38;;;16.42;;
46563;SDS011;32291;52.010;4.446;2022-11-20T03:38:30;21.73;;;16.58;;
46563;SDS011;32291;52.010;4.446;2022-11-20T03:39:33;23.88;;;17.48;;
46563;SDS011;32291;52.010;4.446;2022-11-20T03:40:35;21.65;;;16.98;;
46563;SDS011;32291;52.010;4.446;2022-11-20T03:41:38;21.05;;;17.00;;
46563;SDS011;32291;52.010;4.446;2022-11-20T03:42:43;21.35;;;17.80;;
46563;SDS011;32291;52.010;4.446;2022-11-20T03:43:51;25.35;;;16.92;;
46563;SDS011;32291;52.010;4.446;2022-11-20T03:44:58;20.50;;;17.27;;
46563;SDS011;32291;52.010;4.446;2022-11-20T03:46:00;21.13;;;16.92;;
46563;SDS011;32291;52.010;4.446;2022-11-20T03:47:04;21.17;;;17.00;;
46563;SDS011;32291;52.010;4.446;2022-11-20T03:48:07;23.50;;;17.67;;
46563;SDS011;32291;52.010;4.446;2022-11-20T03:49:09;24.02;;;17.77;;
46563;SDS011;32291;52.010;4.446;2022-11-20T03:50:11;23.73;;;17.83;;
46563;SDS011;32291;52.010;4.446;2022-11-20T03:51:18;20.50;;;15.85;;
46563;SDS011;32291;52.010;4.446;2022-11-20T03:52:33;20.90;;;16.25;;
46563;SDS011;32291;52.010;4.446;2022-11-20T03:53:35;22.58;;;16.83;;
46563;SDS011;32291;52.010;4.446;2022-11-20T03:54:37;19.85;;;16.73;;
46563;SDS011;32291;52.010;4.446;2022-11-20T03:55:39;20.38;;;16.92;;
46563;SDS011;32291;52.010;4.446;2022-11-20T03:56:41;22.95;;;17.13;;
46563;SDS011;32291;52.010;4.446;2022-11-20T03:57:43;23.42;;;18.35;;
46563;SDS011;32291;52.010;4.446;2022-11-20T03:58:45;23.27;;;17.85;;
46563;SDS011;32291;52.010;4.446;2022-11-20T03:59:47;21.27;;;18.45;;
46563;SDS011;32291;52.010;4.446;2022-11-20T04:00:49;21.88;;;17.40;;
46563;SDS011;32291;52.010;4.446;2022-11-20T04:01:51;23.48;;;18.08;;
46563;SDS011;32291;52.010;4.446;2022-11-20T04:02:53;22.20;;;17.40;;
46563;SDS011;32291;52.010;4.446;2022-11-20T04:04:00;22.75;;;16.50;;
46563;SDS011;32291;52.010;4.446;2022-11-20T04:05:02;22.02;;;17.60;;
46563;SDS011;32291;52.010;4.446;2022-11-20T04:06:12;26.00;;;19.48;;
46563;SDS011;32291;52.010;4.446;2022-11-20T04:07:25;24.55;;;18.58;;
46563;SDS011;32291;52.010;4.446;2022-11-20T04:08:28;22.98;;;17.17;;
46563;SDS011;32291;52.010;4.446;2022-11-20T04:09:31;23.85;;;18.23;;
46563;SDS011;32291;52.010;4.446;2022-11-20T04:10:34;24.70;;;18.60;;
46563;SDS011;32291;52.010;4.446;2022-11-20T04:11:36;28.67;;;19.85;;
46563;SDS011;32291;52.010;4.446;2022-11-20T04:12:42;24.55;;;19.20;;
46563;SDS011;32291;52.010;4.446;2022-11-20T04:13:51;24.67;;;18.25;;
46563;SDS011;32291;52.010;4.446;2022-11-20T04:14:57;26.15;;;18.17;;
46563;SDS011;32291;52.010;4.446;2022-11-20T04:15:59;25.70;;;20.17;;
46563;SDS011;32291;52.010;4.446;2022-11-20T04:17:01;24.98;;;17.88;;
46563;SDS011;32291;52.010;4.446;2022-11-20T04:18:04;27.58;;;20.10;;
46563;SDS011;32291;52.010;4.446;2022-11-20T04:19:08;26.33;;;19.17;;
46563;SDS011;32291;52.010;4.446;2022-11-20T04:20:16;23.08;;;18.88;;
46563;SDS011;32291;52.010;4.446;2022-11-20T04:21:18;24.40;;;19.67;;
46563;SDS011;32291;52.010;4.446;2022-11-20T04:22:19;25.50;;;17.30;;
46563;SDS011;32291;52.010;4.446;2022-11-20T04:23:21;23.88;;;18.45;;
46563;SDS011;32291;52.010;4.446;2022-11-20T04:24:24;23.27;;;17.85;;
46563;SDS011;32291;52.010;4.446;2022-11-20T04:25:27;27.10;;;18.92;;
46563;SDS011;32291;52.010;4.446;2022-11-20T04:26:29;23.98;;;18.80;;
46563;SDS011;32291;52.010;4.446;2022-11-20T04:27:32;28.10;;;20.20;;
46563;SDS011;32291;52.010;4.446;2022-11-20T04:28:35;25.10;;;18.40;;
46563;SDS011;32291;52.010;4.446;2022-11-20T04:29:38;26.25;;;19.40;;
46563;SDS011;32291;52.010;4.446;2022-11-20T04:30:40;24.80;;;19.05;;
46563;SDS011;32291;52.010;4.446;2022-11-20T04:31:44;26.95;;;18.55;;
46563;SDS011;32291;52.010;4.446;2022-11-20T04:32:46;23.73;;;19.42;;
46563;SDS011;32291;52.010;4.446;2022-11-20T04:33:47;25.00;;;18.95;;
46563;SDS011;32291;52.010;4.446;2022-11-20T04:34:50;27.85;;;19.98;;
46563;SDS011;32291;52.010;4.446;2022-11-20T04:35:53;30.13;;;20.20;;
46563;SDS011;32291;52.010;4.446;2022-11-20T04:36:54;26.63;;;19.75;;
46563;SDS011;32291;52.010;4.446;2022-11-20T04:37:56;27.05;;;20.23;;
46563;SDS011;32291;52.010;4.446;2022-11-20T04:38:59;31.33;;;20.42;;
46563;SDS011;32291;52.010;4.446;2022-11-20T04:40:07;28.30;;;20.25;;
46563;SDS011;32291;52.010;4.446;2022-11-20T04:41:17;24.23;;;19.27;;
46563;SDS011;32291;52.010;4.446;2022-11-20T04:42:21;26.30;;;18.83;;
46563;SDS011;32291;52.010;4.446;2022-11-20T04:43:30;27.15;;;19.77;;
46563;SDS011;32291;52.010;4.446;2022-11-20T04:44:33;25.13;;;19.00;;
46563;SDS011;32291;52.010;4.446;2022-11-20T04:45:35;27.15;;;20.20;;
46563;SDS011;32291;52.010;4.446;2022-11-20T04:46:39;25.10;;;18.48;;
46563;SDS011;32291;52.010;4.446;2022-11-20T04:47:43;25.63;;;18.48;;
46563;SDS011;32291;52.010;4.446;2022-11-20T04:48:45;28.05;;;19.52;;
46563;SDS011;32291;52.010;4.446;2022-11-20T04:49:48;24.33;;;18.83;;
46563;SDS011;32291;52.010;4.446;2022-11-20T04:50:51;26.75;;;19.85;;
46563;SDS011;32291;52.010;4.446;2022-11-20T04:51:54;25.30;;;19.88;;
46563;SDS011;32291;52.010;4.446;2022-11-20T04:52:56;24.77;;;18.45;;
46563;SDS011;32291;52.010;4.446;2022-11-20T04:53:58;25.80;;;19.73;;
46563;SDS011;32291;52.010;4.446;2022-11-20T04:55:00;26.63;;;20.10;;
46563;SDS011;32291;52.010;4.446;2022-11-20T04:56:03;24.60;;;18.60;;
46563;SDS011;32291;52.010;4.446;2022-11-20T04:57:13;22.73;;;17.98;;
46563;SDS011;32291;52.010;4.446;2022-11-20T04:58:16;25.10;;;19.77;;
46563;SDS011;32291;52.010;4.446;2022-11-20T04:59:18;25.45;;;19.23;;
46563;SDS011;32291;52.010;4.446;2022-11-20T05:00:20;26.38;;;19.15;;
46563;SDS011;32291;52.010;4.446;2022-11-20T05:01:22;24.55;;;18.20;;
46563;SDS011;32291;52.010;4.446;2022-11-20T05:02:26;27.77;;;20.77;;
46563;SDS011;32291;52.010;4.446;2022-11-20T05:03:28;27.05;;;18.98;;
46563;SDS011;32291;52.010;4.446;2022-11-20T05:04:31;24.45;;;19.42;;
46563;SDS011;32291;52.010;4.446;2022-11-20T05:05:34;26.88;;;19.75;;
46563;SDS011;32291;52.010;4.446;2022-11-20T05:06:36;25.05;;;19.70;;
46563;SDS011;32291;52.010;4.446;2022-11-20T05:07:38;24.35;;;19.02;;
46563;SDS011;32291;52.010;4.446;2022-11-20T05:08:40;26.40;;;20.48;;
46563;SDS011;32291;52.010;4.446;2022-11-20T05:09:43;27.27;;;20.17;;
46563;SDS011;32291;52.010;4.446;2022-11-20T05:10:45;26.13;;;20.08;;
46563;SDS011;32291;52.010;4.446;2022-11-20T05:11:47;26.40;;;21.13;;
46563;SDS011;32291;52.010;4.446;2022-11-20T05:12:49;26.65;;;19.48;;
46563;SDS011;32291;52.010;4.446;2022-11-20T05:13:51;26.95;;;20.38;;
46563;SDS011;32291;52.010;4.446;2022-11-20T05:14:53;27.60;;;20.35;;
46563;SDS011;32291;52.010;4.446;2022-11-20T05:16:00;26.58;;;20.00;;
46563;SDS011;32291;52.010;4.446;2022-11-20T05:17:09;22.77;;;18.42;;
46563;SDS011;32291;52.010;4.446;2022-11-20T05:18:13;27.60;;;20.45;;
46563;SDS011;32291;52.010;4.446;2022-11-20T05:19:15;27.73;;;20.27;;
46563;SDS011;32291;52.010;4.446;2022-11-20T05:20:17;27.02;;;19.98;;
46563;SDS011;32291;52.010;4.446;2022-11-20T05:21:21;28.67;;;19.75;;
46563;SDS011;32291;52.010;4.446;2022-11-20T05:22:23;31.35;;;21.13;;
46563;SDS011;32291;52.010;4.446;2022-11-20T05:23:25;30.13;;;21.50;;
46563;SDS011;32291;52.010;4.446;2022-11-20T05:24:30;27.42;;;20.48;;
46563;SDS011;32291;52.010;4.446;2022-11-20T05:25:31;30.08;;;22.23;;
46563;SDS011;32291;52.010;4.446;2022-11-20T05:26:34;28.98;;;20.75;;
46563;SDS011;32291;52.010;4.446;2022-11-20T05:27:36;28.40;;;20.77;;
46563;SDS011;32291;52.010;4.446;2022-11-20T05:28:39;25.42;;;20.52;;
46563;SDS011;32291;52.010;4.446;2022-11-20T05:29:41;28.83;;;21.20;;
46563;SDS011;32291;52.010;4.446;2022-11-20T05:30:43;30.30;;;21.58;;
46563;SDS011;32291;52.010;4.446;2022-11-20T05:31:45;27.40;;;20.25;;
46563;SDS011;32291;52.010;4.446;2022-11-20T05:32:47;31.30;;;21.20;;
46563;SDS011;32291;52.010;4.446;2022-11-20T05:33:49;30.65;;;20.75;;
46563;SDS011;32291;52.010;4.446;2022-11-20T05:34:52;28.42;;;20.48;;
46563;SDS011;32291;52.010;4.446;2022-11-20T05:35:57;28.98;;;21.60;;
46563;SDS011;32291;52.010;4.446;2022-11-20T05:36:59;27.67;;;20.70;;
46563;SDS011;32291;52.010;4.446;2022-11-20T05:38:02;31.05;;;22.02;;
46563;SDS011;32291;52.010;4.446;2022-11-20T05:39:04;31.83;;;23.13;;
46563;SDS011;32291;52.010;4.446;2022-11-20T05:40:06;32.92;;;22.52;;
46563;SDS011;32291;52.010;4.446;2022-11-20T05:41:14;30.35;;;21.98;;
46563;SDS011;32291;52.010;4.446;2022-11-20T05:42:20;27.45;;;20.92;;
46563;SDS011;32291;52.010;4.446;2022-11-20T05:43:31;30.52;;;22.00;;
46563;SDS011;32291;52.010;4.446;2022-11-20T05:44:36;30.42;;;21.50;;
46563;SDS011;32291;52.010;4.446;2022-11-20T05:45:37;29.27;;;21.95;;
46563;SDS011;32291;52.010;4.446;2022-11-20T05:46:40;27.95;;;21.15;;
46563;SDS011;32291;52.010;4.446;2022-11-20T05:47:43;30.00;;;21.50;;
46563;SDS011;32291;52.010;4.446;2022-11-20T05:48:45;30.05;;;20.42;;
46563;SDS011;32291;52.010;4.446;2022-11-20T05:49:47;29.55;;;21.35;;
46563;SDS011;32291;52.010;4.446;2022-11-20T05:50:49;29.92;;;22.20;;
46563;SDS011;32291;52.010;4.446;2022-11-20T05:51:51;28.50;;;19.98;;
46563;SDS011;32291;52.010;4.446;2022-11-20T05:52:53;29.38;;;20.88;;
46563;SDS011;32291;52.010;4.446;2022-11-20T05:53:56;32.35;;;21.67;;
46563;SDS011;32291;52.010;4.446;2022-11-20T05:54:59;30.40;;;21.65;;
46563;SDS011;32291;52.010;4.446;2022-11-20T05:56:06;29.52;;;21.75;;
46563;SDS011;32291;52.010;4.446;2022-11-20T05:57:13;34.30;;;22.05;;
46563;SDS011;32291;52.010;4.446;2022-11-20T05:58:15;28.55;;;21.92;;
46563;SDS011;32291;52.010;4.446;2022-11-20T05:59:18;27.25;;;20.63;;
46563;SDS011;32291;52.010;4.446;2022-11-20T06:00:20;28.00;;;21.48;;
46563;SDS011;32291;52.010;4.446;2022-11-20T06:01:23;29.25;;;21.92;;
46563;SDS011;32291;52.010;4.446;2022-11-20T06:02:27;28.90;;;20.90;;
46563;SDS011;32291;52.010;4.446;2022-11-20T06:03:28;29.90;;;21.95;;
46563;SDS011;32291;52.010;4.446;2022-11-20T06:04:31;27.17;;;20.67;;
46563;SDS011;32291;52.010;4.446;2022-11-20T06:05:33;27.88;;;21.63;;
46563;SDS011;32291;52.010;4.446;2022-11-20T06:06:35;29.20;;;22.00;;
46563;SDS011;32291;52.010;4.446;2022-11-20T06:07:37;30.73;;;21.45;;
46563;SDS011;32291;52.010;4.446;2022-11-20T06:08:39;30.27;;;22.27;;
46563;SDS011;32291;52.010;4.446;2022-11-20T06:09:41;28.27;;;21.15;;
46563;SDS011;32291;52.010;4.446;2022-11-20T06:10:44;28.75;;;21.58;;
46563;SDS011;32291;52.010;4.446;2022-11-20T06:11:45;32.17;;;21.90;;
46563;SDS011;32291;52.010;4.446;2022-11-20T06:12:47;26.88;;;21.35;;
46563;SDS011;32291;52.010;4.446;2022-11-20T06:13:49;31.60;;;21.67;;
46563;SDS011;32291;52.010;4.446;2022-11-20T06:14:52;27.67;;;20.65;;
46563;SDS011;32291;52.010;4.446;2022-11-20T06:15:54;27.85;;;20.63;;
46563;SDS011;32291;52.010;4.446;2022-11-20T06:16:56;28.88;;;22.38;;
46563;SDS011;32291;52.010;4.446;2022-11-20T06:17:58;31.52;;;22.05;;
46563;SDS011;32291;52.010;4.446;2022-11-20T06:19:00;27.70;;;20.77;;
46563;SDS011;32291;52.010;4.446;2022-11-20T06:20:02;26.13;;;20.77;;
46563;SDS011;32291;52.010;4.446;2022-11-20T06:21:06;27.67;;;20.70;;
46563;SDS011;32291;52.010;4.446;2022-11-20T06:22:17;29.13;;;21.20;;
46563;SDS011;32291;52.010;4.446;2022-11-20T06:23:19;27.58;;;20.92;;